sensor_id;sensor_type;location;lat;lon;timestamp;P1;durP1;ratioP1;P2;durP2;ratioP2
80425;SDS011;69766;51.476;5.704;2023-06-19T00:00:08;8.63;;;5.00;;
80425;SDS011;69766;51.476;5.704;2023-06-19T00:02:41;9.82;;;5.40;;
80425;SDS011;69766;51.476;5.704;2023-06-19T00:05:07;7.63;;;5.18;;
80425;SDS011;69766;51.476;5.704;2023-06-19T00:07:34;8.57;;;5.53;;
80425;SDS011;69766;51.476;5.704;2023-06-19T00:10:01;7.43;;;5.28;;
80425;SDS011;69766;51.476;5.704;2023-06-19T00:12:26;7.38;;;5.38;;
80425;SDS011;69766;51.476;5.704;2023-06-19T00:14:52;6.88;;;4.72;;
80425;SDS011;69766;51.476;5.704;2023-06-19T00:17:17;7.32;;;5.55;;
80425;SDS011;69766;51.476;5.704;2023-06-19T00:19:43;8.45;;;4.97;;
80425;SDS011;69766;51.476;5.704;2023-06-19T00:22:09;8.07;;;5.28;;
80425;SDS011;69766;51.476;5.704;2023-06-19T00:24:35;8.68;;;5.35;;
80425;SDS011;69766;51.476;5.704;2023-06-19T00:27:00;9.82;;;5.40;;
80425;SDS011;69766;51.476;5.704;2023-06-19T00:29:28;8.57;;;5.53;;
80425;SDS011;69766;51.476;5.704;2023-06-19T00:31:54;8.20;;;4.68;;
80425;SDS011;69766;51.476;5.704;2023-06-19T00:34:20;7.03;;;5.03;;
80425;SDS011;69766;51.476;5.704;2023-06-19T00:36:49;8.48;;;5.28;;
80425;SDS011;69766;51.476;5.704;2023-06-19T00:39:24;8.10;;;4.80;;
80425;SDS011;69766;51.476;5.704;2023-06-19T00:41:53;7.78;;;5.32;;
80425;SDS011;69766;51.476;5.704;2023-06-19T00:44:20;7.57;;;5.55;;
80425;SDS011;69766;51.476;5.704;2023-06-19T00:46:46;7.72;;;5.40;;
80425;SDS011;69766;51.476;5.704;2023-06-19T00:49:12;9.00;;;5.18;;
80425;SDS011;69766;51.476;5.704;2023-06-19T00:51:39;7.68;;;5.65;;
80425;SDS011;69766;51.476;5.704;2023-06-19T00:54:05;7.68;;;5.28;;
80425;SDS011;69766;51.476;5.704;2023-06-19T00:56:31;8.80;;;5.20;;
80425;SDS011;69766;51.476;5.704;2023-06-19T00:58:59;8.75;;;5.65;;
80425;SDS011;69766;51.476;5.704;2023-06-19T01:01:26;8.82;;;5.43;;
80425;SDS011;69766;51.476;5.704;2023-06-19T01:03:52;8.70;;;4.88;;
80425;SDS011;69766;51.476;5.704;2023-06-19T01:06:23;7.35;;;5.13;;
80425;SDS011;69766;51.476;5.704;2023-06-19T01:09:01;6.70;;;4.72;;
80425;SDS011;69766;51.476;5.704;2023-06-19T01:11:33;8.60;;;5.35;;
80425;SDS011;69766;51.476;5.704;2023-06-19T01:14:12;9.07;;;5.28;;
80425;SDS011;69766;51.476;5.704;2023-06-19T01:16:44;8.40;;;4.97;;
80425;SDS011;69766;51.476;5.704;2023-06-19T01:19:11;7.13;;;4.60;;
80425;SDS011;69766;51.476;5.704;2023-06-19T01:21:42;8.85;;;5.43;;
80425;SDS011;69766;51.476;5.704;2023-06-19T01:24:08;6.60;;;4.30;;
80425;SDS011;69766;51.476;5.704;2023-06-19T01:26:34;6.80;;;4.93;;
80425;SDS011;69766;51.476;5.704;2023-06-19T01:29:00;7.82;;;4.32;;
80425;SDS011;69766;51.476;5.704;2023-06-19T01:31:36;6.25;;;4.50;;
80425;SDS011;69766;51.476;5.704;2023-06-19T01:34:09;8.35;;;5.28;;
80425;SDS011;69766;51.476;5.704;2023-06-19T01:36:37;6.93;;;4.32;;
80425;SDS011;69766;51.476;5.704;2023-06-19T01:39:03;8.20;;;4.30;;
80425;SDS011;69766;51.476;5.704;2023-06-19T01:41:30;8.38;;;4.53;;
80425;SDS011;69766;51.476;5.704;2023-06-19T01:43:57;7.10;;;4.28;;
80425;SDS011;69766;51.476;5.704;2023-06-19T01:46:24;7.53;;;4.25;;
80425;SDS011;69766;51.476;5.704;2023-06-19T01:48:50;8.00;;;4.57;;
80425;SDS011;69766;51.476;5.704;2023-06-19T01:51:16;8.38;;;4.05;;
80425;SDS011;69766;51.476;5.704;2023-06-19T01:53:42;5.90;;;3.78;;
80425;SDS011;69766;51.476;5.704;2023-06-19T01:56:08;7.07;;;4.07;;
80425;SDS011;69766;51.476;5.704;2023-06-19T01:58:33;8.13;;;3.88;;
80425;SDS011;69766;51.476;5.704;2023-06-19T02:00:59;6.65;;;4.22;;
80425;SDS011;69766;51.476;5.704;2023-06-19T02:03:25;6.93;;;3.88;;
80425;SDS011;69766;51.476;5.704;2023-06-19T02:05:50;6.88;;;4.30;;
80425;SDS011;69766;51.476;5.704;2023-06-19T02:08:16;8.07;;;4.03;;
80425;SDS011;69766;51.476;5.704;2023-06-19T02:10:42;7.53;;;3.92;;
80425;SDS011;69766;51.476;5.704;2023-06-19T02:13:07;8.45;;;3.70;;
80425;SDS011;69766;51.476;5.704;2023-06-19T02:15:36;7.13;;;4.18;;
80425;SDS011;69766;51.476;5.704;2023-06-19T02:18:03;7.25;;;4.30;;
80425;SDS011;69766;51.476;5.704;2023-06-19T02:20:29;7.10;;;3.90;;
80425;SDS011;69766;51.476;5.704;2023-06-19T02:22:55;8.68;;;4.32;;
80425;SDS011;69766;51.476;5.704;2023-06-19T02:25:21;7.03;;;3.63;;
80425;SDS011;69766;51.476;5.704;2023-06-19T02:27:46;7.95;;;4.10;;
80425;SDS011;69766;51.476;5.704;2023-06-19T02:30:12;7.38;;;3.95;;
80425;SDS011;69766;51.476;5.704;2023-06-19T02:32:38;7.60;;;3.95;;
80425;SDS011;69766;51.476;5.704;2023-06-19T02:35:05;7.03;;;4.13;;
80425;SDS011;69766;51.476;5.704;2023-06-19T02:37:33;6.97;;;3.70;;
80425;SDS011;69766;51.476;5.704;2023-06-19T02:40:05;7.68;;;3.92;;
80425;SDS011;69766;51.476;5.704;2023-06-19T02:42:31;5.88;;;3.50;;
80425;SDS011;69766;51.476;5.704;2023-06-19T02:44:57;7.88;;;4.30;;
80425;SDS011;69766;51.476;5.704;2023-06-19T02:50:00;7.75;;;3.90;;
80425;SDS011;69766;51.476;5.704;2023-06-19T02:52:27;6.80;;;3.95;;
80425;SDS011;69766;51.476;5.704;2023-06-19T02:54:53;8.35;;;4.55;;
80425;SDS011;69766;51.476;5.704;2023-06-19T02:57:19;6.28;;;3.65;;
80425;SDS011;69766;51.476;5.704;2023-06-19T02:59:45;7.60;;;3.63;;
80425;SDS011;69766;51.476;5.704;2023-06-19T03:02:11;6.97;;;3.92;;
80425;SDS011;69766;51.476;5.704;2023-06-19T03:04:36;6.40;;;3.55;;
80425;SDS011;69766;51.476;5.704;2023-06-19T03:07:02;6.60;;;3.78;;
80425;SDS011;69766;51.476;5.704;2023-06-19T03:09:28;5.45;;;3.70;;
80425;SDS011;69766;51.476;5.704;2023-06-19T03:11:54;4.57;;;2.97;;
80425;SDS011;69766;51.476;5.704;2023-06-19T03:14:19;5.45;;;3.30;;
80425;SDS011;69766;51.476;5.704;2023-06-19T03:16:45;6.47;;;3.78;;
80425;SDS011;69766;51.476;5.704;2023-06-19T03:19:11;5.25;;;3.28;;
80425;SDS011;69766;51.476;5.704;2023-06-19T03:21:37;7.50;;;4.10;;
80425;SDS011;69766;51.476;5.704;2023-06-19T03:24:03;7.07;;;3.53;;
80425;SDS011;69766;51.476;5.704;2023-06-19T03:26:28;6.05;;;3.35;;
80425;SDS011;69766;51.476;5.704;2023-06-19T03:28:54;6.22;;;3.47;;
80425;SDS011;69766;51.476;5.704;2023-06-19T03:31:20;5.68;;;3.50;;
80425;SDS011;69766;51.476;5.704;2023-06-19T03:33:46;9.55;;;4.25;;
80425;SDS011;69766;51.476;5.704;2023-06-19T03:36:11;6.10;;;3.00;;
80425;SDS011;69766;51.476;5.704;2023-06-19T03:38:37;5.95;;;3.65;;
80425;SDS011;69766;51.476;5.704;2023-06-19T03:41:03;5.78;;;3.55;;
80425;SDS011;69766;51.476;5.704;2023-06-19T03:43:28;7.65;;;4.35;;
80425;SDS011;69766;51.476;5.704;2023-06-19T03:45:54;9.60;;;4.20;;
80425;SDS011;69766;51.476;5.704;2023-06-19T03:48:20;6.53;;;3.90;;
80425;SDS011;69766;51.476;5.704;2023-06-19T03:50:45;10.30;;;3.80;;
80425;SDS011;69766;51.476;5.704;2023-06-19T03:53:11;8.32;;;3.60;;
80425;SDS011;69766;51.476;5.704;2023-06-19T03:55:37;7.68;;;3.50;;
80425;SDS011;69766;51.476;5.704;2023-06-19T03:58:02;8.05;;;3.92;;
80425;SDS011;69766;51.476;5.704;2023-06-19T04:00:28;7.03;;;4.18;;
80425;SDS011;69766;51.476;5.704;2023-06-19T04:02:54;7.22;;;4.20;;
80425;SDS011;69766;51.476;5.704;2023-06-19T04:05:19;6.38;;;4.07;;
80425;SDS011;69766;51.476;5.704;2023-06-19T04:07:45;6.40;;;3.88;;
80425;SDS011;69766;51.476;5.704;2023-06-19T04:10:12;8.48;;;4.10;;
80425;SDS011;69766;51.476;5.704;2023-06-19T04:12:38;8.80;;;3.85;;
80425;SDS011;69766;51.476;5.704;2023-06-19T04:15:05;8.70;;;4.10;;
80425;SDS011;69766;51.476;5.704;2023-06-19T04:17:31;6.47;;;3.80;;
80425;SDS011;69766;51.476;5.704;2023-06-19T04:19:57;6.97;;;4.15;;
80425;SDS011;69766;51.476;5.704;2023-06-19T04:22:23;6.32;;;3.90;;
80425;SDS011;69766;51.476;5.704;2023-06-19T04:24:48;7.43;;;4.22;;
80425;SDS011;69766;51.476;5.704;2023-06-19T04:27:14;7.03;;;4.05;;
80425;SDS011;69766;51.476;5.704;2023-06-19T04:29:40;8.40;;;3.90;;
80425;SDS011;69766;51.476;5.704;2023-06-19T04:32:05;5.85;;;3.92;;
80425;SDS011;69766;51.476;5.704;2023-06-19T04:34:36;11.98;;;4.60;;
80425;SDS011;69766;51.476;5.704;2023-06-19T04:37:03;7.30;;;5.15;;
80425;SDS011;69766;51.476;5.704;2023-06-19T04:39:29;5.70;;;4.15;;
80425;SDS011;69766;51.476;5.704;2023-06-19T04:41:55;7.10;;;4.18;;
80425;SDS011;69766;51.476;5.704;2023-06-19T04:44:20;6.20;;;3.72;;
80425;SDS011;69766;51.476;5.704;2023-06-19T04:46:47;7.18;;;4.28;;
80425;SDS011;69766;51.476;5.704;2023-06-19T04:49:15;7.65;;;3.58;;
80425;SDS011;69766;51.476;5.704;2023-06-19T04:51:40;7.45;;;4.15;;
80425;SDS011;69766;51.476;5.704;2023-06-19T04:54:07;7.50;;;4.53;;
80425;SDS011;69766;51.476;5.704;2023-06-19T04:56:32;6.47;;;4.03;;
80425;SDS011;69766;51.476;5.704;2023-06-19T04:58:58;8.25;;;4.65;;
80425;SDS011;69766;51.476;5.704;2023-06-19T05:01:26;7.72;;;4.63;;
80425;SDS011;69766;51.476;5.704;2023-06-19T05:03:55;7.72;;;4.72;;
80425;SDS011;69766;51.476;5.704;2023-06-19T05:06:24;7.72;;;4.85;;
80425;SDS011;69766;51.476;5.704;2023-06-19T05:08:50;8.02;;;5.38;;
80425;SDS011;69766;51.476;5.704;2023-06-19T05:11:16;6.72;;;4.72;;
80425;SDS011;69766;51.476;5.704;2023-06-19T05:13:41;7.88;;;4.80;;
80425;SDS011;69766;51.476;5.704;2023-06-19T05:16:07;10.70;;;5.93;;
80425;SDS011;69766;51.476;5.704;2023-06-19T05:18:33;9.23;;;5.32;;
80425;SDS011;69766;51.476;5.704;2023-06-19T05:20:58;10.50;;;5.13;;
80425;SDS011;69766;51.476;5.704;2023-06-19T05:23:24;8.43;;;4.72;;
80425;SDS011;69766;51.476;5.704;2023-06-19T05:25:50;8.80;;;5.22;;
80425;SDS011;69766;51.476;5.704;2023-06-19T05:28:15;6.70;;;4.68;;
80425;SDS011;69766;51.476;5.704;2023-06-19T05:30:41;8.23;;;4.45;;
80425;SDS011;69766;51.476;5.704;2023-06-19T05:33:07;8.30;;;5.30;;
80425;SDS011;69766;51.476;5.704;2023-06-19T05:35:32;7.75;;;4.70;;
80425;SDS011;69766;51.476;5.704;2023-06-19T05:37:58;8.20;;;5.32;;
80425;SDS011;69766;51.476;5.704;2023-06-19T05:40:24;6.80;;;4.53;;
80425;SDS011;69766;51.476;5.704;2023-06-19T05:42:49;11.05;;;5.82;;
80425;SDS011;69766;51.476;5.704;2023-06-19T05:45:16;10.02;;;5.10;;
80425;SDS011;69766;51.476;5.704;2023-06-19T05:47:41;10.85;;;5.50;;
80425;SDS011;69766;51.476;5.704;2023-06-19T05:50:07;7.55;;;4.95;;
80425;SDS011;69766;51.476;5.704;2023-06-19T05:52:33;8.95;;;5.03;;
80425;SDS011;69766;51.476;5.704;2023-06-19T05:54:59;9.25;;;5.10;;
80425;SDS011;69766;51.476;5.704;2023-06-19T05:57:25;9.13;;;4.93;;
80425;SDS011;69766;51.476;5.704;2023-06-19T05:59:51;8.55;;;5.32;;
80425;SDS011;69766;51.476;5.704;2023-06-19T06:02:18;9.60;;;5.03;;
80425;SDS011;69766;51.476;5.704;2023-06-19T06:04:44;7.45;;;4.80;;
80425;SDS011;69766;51.476;5.704;2023-06-19T06:07:10;8.20;;;5.15;;
80425;SDS011;69766;51.476;5.704;2023-06-19T06:09:36;8.50;;;4.45;;
80425;SDS011;69766;51.476;5.704;2023-06-19T06:12:02;8.32;;;4.85;;
80425;SDS011;69766;51.476;5.704;2023-06-19T06:14:28;8.32;;;4.30;;
80425;SDS011;69766;51.476;5.704;2023-06-19T06:16:54;7.75;;;5.05;;
80425;SDS011;69766;51.476;5.704;2023-06-19T06:19:19;8.18;;;5.05;;
80425;SDS011;69766;51.476;5.704;2023-06-19T06:21:48;6.95;;;4.32;;
80425;SDS011;69766;51.476;5.704;2023-06-19T06:24:14;10.88;;;4.60;;
80425;SDS011;69766;51.476;5.704;2023-06-19T06:26:40;8.70;;;5.00;;
80425;SDS011;69766;51.476;5.704;2023-06-19T06:29:06;7.00;;;4.35;;
80425;SDS011;69766;51.476;5.704;2023-06-19T06:31:33;6.53;;;4.80;;
80425;SDS011;69766;51.476;5.704;2023-06-19T06:33:59;7.38;;;4.88;;
80425;SDS011;69766;51.476;5.704;2023-06-19T06:36:25;5.97;;;4.05;;
80425;SDS011;69766;51.476;5.704;2023-06-19T06:38:50;7.13;;;4.20;;
80425;SDS011;69766;51.476;5.704;2023-06-19T06:41:16;7.15;;;3.55;;
80425;SDS011;69766;51.476;5.704;2023-06-19T06:43:42;7.60;;;4.22;;
80425;SDS011;69766;51.476;5.704;2023-06-19T06:46:08;7.18;;;4.18;;
80425;SDS011;69766;51.476;5.704;2023-06-19T06:48:35;8.02;;;4.25;;
80425;SDS011;69766;51.476;5.704;2023-06-19T06:51:04;7.43;;;4.05;;
80425;SDS011;69766;51.476;5.704;2023-06-19T06:53:30;5.78;;;3.65;;
80425;SDS011;69766;51.476;5.704;2023-06-19T06:55:59;9.00;;;4.25;;
80425;SDS011;69766;51.476;5.704;2023-06-19T06:58:25;6.80;;;3.53;;
80425;SDS011;69766;51.476;5.704;2023-06-19T07:00:52;6.07;;;3.88;;
80425;SDS011;69766;51.476;5.704;2023-06-19T07:03:18;6.70;;;3.75;;
80425;SDS011;69766;51.476;5.704;2023-06-19T07:05:43;6.57;;;4.38;;
80425;SDS011;69766;51.476;5.704;2023-06-19T07:08:09;8.95;;;4.30;;
80425;SDS011;69766;51.476;5.704;2023-06-19T07:10:36;6.60;;;3.97;;
80425;SDS011;69766;51.476;5.704;2023-06-19T07:13:01;7.35;;;4.47;;
80425;SDS011;69766;51.476;5.704;2023-06-19T07:15:27;6.43;;;3.38;;
80425;SDS011;69766;51.476;5.704;2023-06-19T07:17:53;8.73;;;4.07;;
80425;SDS011;69766;51.476;5.704;2023-06-19T07:20:18;6.78;;;3.90;;
80425;SDS011;69766;51.476;5.704;2023-06-19T07:22:44;6.25;;;3.83;;
80425;SDS011;69766;51.476;5.704;2023-06-19T07:25:11;5.72;;;3.97;;
80425;SDS011;69766;51.476;5.704;2023-06-19T07:27:37;7.22;;;4.10;;
80425;SDS011;69766;51.476;5.704;2023-06-19T07:30:03;7.03;;;4.00;;
80425;SDS011;69766;51.476;5.704;2023-06-19T07:32:29;8.80;;;4.18;;
80425;SDS011;69766;51.476;5.704;2023-06-19T07:34:55;7.70;;;4.88;;
80425;SDS011;69766;51.476;5.704;2023-06-19T07:37:20;7.80;;;5.60;;
80425;SDS011;69766;51.476;5.704;2023-06-19T07:39:47;9.40;;;5.22;;
80425;SDS011;69766;51.476;5.704;2023-06-19T07:42:14;9.45;;;5.40;;
80425;SDS011;69766;51.476;5.704;2023-06-19T07:44:41;9.25;;;6.20;;
80425;SDS011;69766;51.476;5.704;2023-06-19T07:47:07;9.32;;;6.63;;
80425;SDS011;69766;51.476;5.704;2023-06-19T07:49:33;9.63;;;6.13;;
80425;SDS011;69766;51.476;5.704;2023-06-19T07:51:59;11.65;;;5.82;;
80425;SDS011;69766;51.476;5.704;2023-06-19T07:54:25;9.38;;;5.82;;
80425;SDS011;69766;51.476;5.704;2023-06-19T07:56:51;10.25;;;6.90;;
80425;SDS011;69766;51.476;5.704;2023-06-19T07:59:17;8.07;;;5.47;;
80425;SDS011;69766;51.476;5.704;2023-06-19T08:01:43;10.00;;;5.65;;
80425;SDS011;69766;51.476;5.704;2023-06-19T08:04:09;8.57;;;5.97;;
80425;SDS011;69766;51.476;5.704;2023-06-19T08:06:35;6.97;;;5.43;;
80425;SDS011;69766;51.476;5.704;2023-06-19T08:09:00;10.80;;;6.22;;
80425;SDS011;69766;51.476;5.704;2023-06-19T08:11:26;7.63;;;5.38;;
80425;SDS011;69766;51.476;5.704;2023-06-19T08:13:52;10.30;;;6.00;;
80425;SDS011;69766;51.476;5.704;2023-06-19T08:16:17;9.18;;;6.00;;
80425;SDS011;69766;51.476;5.704;2023-06-19T08:18:43;8.82;;;6.00;;
80425;SDS011;69766;51.476;5.704;2023-06-19T08:21:10;8.73;;;5.90;;
80425;SDS011;69766;51.476;5.704;2023-06-19T08:23:36;10.10;;;6.38;;
80425;SDS011;69766;51.476;5.704;2023-06-19T08:26:03;7.90;;;5.70;;
80425;SDS011;69766;51.476;5.704;2023-06-19T08:28:29;8.93;;;6.28;;
80425;SDS011;69766;51.476;5.704;2023-06-19T08:30:58;7.20;;;5.18;;
80425;SDS011;69766;51.476;5.704;2023-06-19T08:33:24;8.15;;;4.78;;
80425;SDS011;69766;51.476;5.704;2023-06-19T08:35:49;7.50;;;4.88;;
80425;SDS011;69766;51.476;5.704;2023-06-19T08:38:15;8.52;;;5.53;;
80425;SDS011;69766;51.476;5.704;2023-06-19T08:40:44;7.47;;;5.18;;
80425;SDS011;69766;51.476;5.704;2023-06-19T08:43:10;8.45;;;5.63;;
80425;SDS011;69766;51.476;5.704;2023-06-19T08:45:36;9.32;;;5.10;;
80425;SDS011;69766;51.476;5.704;2023-06-19T08:48:02;9.27;;;5.60;;
80425;SDS011;69766;51.476;5.704;2023-06-19T08:50:33;12.70;;;5.50;;
80425;SDS011;69766;51.476;5.704;2023-06-19T08:52:59;8.88;;;5.80;;
80425;SDS011;69766;51.476;5.704;2023-06-19T08:55:25;8.55;;;5.35;;
80425;SDS011;69766;51.476;5.704;2023-06-19T08:57:51;9.00;;;4.90;;
80425;SDS011;69766;51.476;5.704;2023-06-19T09:00:28;9.48;;;5.28;;
80425;SDS011;69766;51.476;5.704;2023-06-19T09:03:01;9.63;;;5.30;;
80425;SDS011;69766;51.476;5.704;2023-06-19T09:05:27;9.27;;;4.80;;
80425;SDS011;69766;51.476;5.704;2023-06-19T09:07:55;8.02;;;5.35;;
80425;SDS011;69766;51.476;5.704;2023-06-19T09:10:22;7.13;;;5.15;;
80425;SDS011;69766;51.476;5.704;2023-06-19T09:13:02;7.53;;;5.35;;
80425;SDS011;69766;51.476;5.704;2023-06-19T09:18:08;9.70;;;5.25;;
80425;SDS011;69766;51.476;5.704;2023-06-19T09:20:37;8.82;;;4.80;;
80425;SDS011;69766;51.476;5.704;2023-06-19T09:23:06;9.70;;;5.45;;
80425;SDS011;69766;51.476;5.704;2023-06-19T09:25:42;7.50;;;4.38;;
80425;SDS011;69766;51.476;5.704;2023-06-19T09:28:16;8.93;;;5.40;;
80425;SDS011;69766;51.476;5.704;2023-06-19T09:30:56;8.40;;;5.40;;
80425;SDS011;69766;51.476;5.704;2023-06-19T09:33:26;8.98;;;5.32;;
80425;SDS011;69766;51.476;5.704;2023-06-19T09:35:57;8.80;;;5.47;;
80425;SDS011;69766;51.476;5.704;2023-06-19T09:38:24;8.32;;;5.13;;
80425;SDS011;69766;51.476;5.704;2023-06-19T09:40:51;9.05;;;5.03;;
80425;SDS011;69766;51.476;5.704;2023-06-19T09:43:24;8.93;;;5.78;;
80425;SDS011;69766;51.476;5.704;2023-06-19T09:45:55;9.48;;;5.32;;
80425;SDS011;69766;51.476;5.704;2023-06-19T09:48:24;8.57;;;5.55;;
80425;SDS011;69766;51.476;5.704;2023-06-19T09:50:54;8.13;;;4.70;;
80425;SDS011;69766;51.476;5.704;2023-06-19T09:53:44;7.72;;;4.72;;
80425;SDS011;69766;51.476;5.704;2023-06-19T09:56:11;9.18;;;5.40;;
80425;SDS011;69766;51.476;5.704;2023-06-19T09:58:37;9.07;;;6.05;;
80425;SDS011;69766;51.476;5.704;2023-06-19T10:01:05;8.68;;;6.03;;
80425;SDS011;69766;51.476;5.704;2023-06-19T10:03:32;7.97;;;5.45;;
80425;SDS011;69766;51.476;5.704;2023-06-19T10:06:22;10.55;;;5.65;;
80425;SDS011;69766;51.476;5.704;2023-06-19T10:08:47;10.57;;;6.60;;
80425;SDS011;69766;51.476;5.704;2023-06-19T10:11:15;8.63;;;5.53;;
80425;SDS011;69766;51.476;5.704;2023-06-19T10:13:41;10.93;;;6.00;;
80425;SDS011;69766;51.476;5.704;2023-06-19T10:16:08;9.38;;;5.68;;
80425;SDS011;69766;51.476;5.704;2023-06-19T10:18:45;8.73;;;5.47;;
80425;SDS011;69766;51.476;5.704;2023-06-19T10:21:21;11.00;;;5.55;;
80425;SDS011;69766;51.476;5.704;2023-06-19T10:23:54;9.50;;;6.05;;
80425;SDS011;69766;51.476;5.704;2023-06-19T10:26:28;8.95;;;5.95;;
80425;SDS011;69766;51.476;5.704;2023-06-19T10:28:58;8.77;;;6.13;;
80425;SDS011;69766;51.476;5.704;2023-06-19T10:31:24;9.27;;;5.70;;
80425;SDS011;69766;51.476;5.704;2023-06-19T10:33:50;9.15;;;5.75;;
80425;SDS011;69766;51.476;5.704;2023-06-19T10:36:16;8.77;;;5.78;;
80425;SDS011;69766;51.476;5.704;2023-06-19T10:38:44;8.82;;;6.03;;
80425;SDS011;69766;51.476;5.704;2023-06-19T10:41:18;8.88;;;6.28;;
80425;SDS011;69766;51.476;5.704;2023-06-19T10:43:58;14.40;;;6.28;;
80425;SDS011;69766;51.476;5.704;2023-06-19T10:46:33;12.30;;;6.05;;
80425;SDS011;69766;51.476;5.704;2023-06-19T10:49:03;8.27;;;6.00;;
80425;SDS011;69766;51.476;5.704;2023-06-19T10:51:31;10.85;;;6.22;;
80425;SDS011;69766;51.476;5.704;2023-06-19T10:54:00;11.05;;;6.03;;
80425;SDS011;69766;51.476;5.704;2023-06-19T10:56:26;10.25;;;6.22;;
80425;SDS011;69766;51.476;5.704;2023-06-19T10:59:02;10.43;;;6.60;;
80425;SDS011;69766;51.476;5.704;2023-06-19T11:01:31;9.65;;;6.53;;
80425;SDS011;69766;51.476;5.704;2023-06-19T11:04:06;8.23;;;6.10;;
80425;SDS011;69766;51.476;5.704;2023-06-19T11:06:36;8.85;;;6.72;;
80425;SDS011;69766;51.476;5.704;2023-06-19T11:09:03;10.88;;;6.57;;
80425;SDS011;69766;51.476;5.704;2023-06-19T11:14:03;9.25;;;5.55;;
80425;SDS011;69766;51.476;5.704;2023-06-19T11:16:30;11.95;;;6.30;;
80425;SDS011;69766;51.476;5.704;2023-06-19T11:18:56;9.85;;;6.22;;
80425;SDS011;69766;51.476;5.704;2023-06-19T11:21:29;8.90;;;6.10;;
80425;SDS011;69766;51.476;5.704;2023-06-19T11:23:57;11.38;;;6.03;;
80425;SDS011;69766;51.476;5.704;2023-06-19T11:26:24;9.05;;;6.40;;
80425;SDS011;69766;51.476;5.704;2023-06-19T11:28:50;11.35;;;5.80;;
80425;SDS011;69766;51.476;5.704;2023-06-19T11:31:16;10.32;;;6.68;;
80425;SDS011;69766;51.476;5.704;2023-06-19T11:33:42;10.25;;;6.18;;
80425;SDS011;69766;51.476;5.704;2023-06-19T11:36:08;10.93;;;5.72;;
80425;SDS011;69766;51.476;5.704;2023-06-19T11:38:35;8.57;;;5.90;;
80425;SDS011;69766;51.476;5.704;2023-06-19T11:41:03;10.20;;;6.35;;
80425;SDS011;69766;51.476;5.704;2023-06-19T11:43:32;10.00;;;6.15;;
80425;SDS011;69766;51.476;5.704;2023-06-19T11:46:03;10.60;;;6.13;;
80425;SDS011;69766;51.476;5.704;2023-06-19T11:48:30;10.50;;;6.38;;
80425;SDS011;69766;51.476;5.704;2023-06-19T11:50:56;9.85;;;6.05;;
80425;SDS011;69766;51.476;5.704;2023-06-19T11:53:23;8.70;;;5.70;;
80425;SDS011;69766;51.476;5.704;2023-06-19T11:55:50;10.60;;;6.20;;
80425;SDS011;69766;51.476;5.704;2023-06-19T11:58:19;8.68;;;5.70;;
80425;SDS011;69766;51.476;5.704;2023-06-19T12:00:45;10.75;;;6.28;;
80425;SDS011;69766;51.476;5.704;2023-06-19T12:03:12;7.82;;;6.05;;
80425;SDS011;69766;51.476;5.704;2023-06-19T12:05:37;10.75;;;6.55;;
80425;SDS011;69766;51.476;5.704;2023-06-19T12:08:03;7.57;;;5.57;;
80425;SDS011;69766;51.476;5.704;2023-06-19T12:10:30;8.13;;;5.78;;
80425;SDS011;69766;51.476;5.704;2023-06-19T12:12:56;7.80;;;4.82;;
80425;SDS011;69766;51.476;5.704;2023-06-19T12:15:22;11.88;;;5.88;;
80425;SDS011;69766;51.476;5.704;2023-06-19T12:17:48;8.63;;;5.35;;
80425;SDS011;69766;51.476;5.704;2023-06-19T12:20:13;10.13;;;6.10;;
80425;SDS011;69766;51.476;5.704;2023-06-19T12:22:39;9.90;;;6.03;;
80425;SDS011;69766;51.476;5.704;2023-06-19T12:25:05;13.23;;;5.93;;
80425;SDS011;69766;51.476;5.704;2023-06-19T12:27:31;9.57;;;6.07;;
80425;SDS011;69766;51.476;5.704;2023-06-19T12:29:57;9.43;;;6.63;;
80425;SDS011;69766;51.476;5.704;2023-06-19T12:32:23;10.68;;;5.97;;
80425;SDS011;69766;51.476;5.704;2023-06-19T12:34:50;8.73;;;4.82;;
80425;SDS011;69766;51.476;5.704;2023-06-19T12:37:19;8.98;;;5.53;;
80425;SDS011;69766;51.476;5.704;2023-06-19T12:39:46;8.82;;;6.07;;
80425;SDS011;69766;51.476;5.704;2023-06-19T12:42:12;12.98;;;5.68;;
80425;SDS011;69766;51.476;5.704;2023-06-19T12:44:41;8.70;;;5.80;;
80425;SDS011;69766;51.476;5.704;2023-06-19T12:47:09;8.10;;;5.78;;
80425;SDS011;69766;51.476;5.704;2023-06-19T12:49:35;7.40;;;5.13;;
80425;SDS011;69766;51.476;5.704;2023-06-19T12:52:01;8.60;;;5.25;;
80425;SDS011;69766;51.476;5.704;2023-06-19T12:54:28;8.57;;;5.40;;
80425;SDS011;69766;51.476;5.704;2023-06-19T12:56:54;9.73;;;6.00;;
80425;SDS011;69766;51.476;5.704;2023-06-19T12:59:20;10.18;;;5.63;;
80425;SDS011;69766;51.476;5.704;2023-06-19T13:01:45;7.00;;;5.43;;
80425;SDS011;69766;51.476;5.704;2023-06-19T13:04:12;8.30;;;5.15;;
80425;SDS011;69766;51.476;5.704;2023-06-19T13:06:38;11.70;;;5.90;;
80425;SDS011;69766;51.476;5.704;2023-06-19T13:09:05;9.70;;;6.10;;
80425;SDS011;69766;51.476;5.704;2023-06-19T13:11:31;6.78;;;4.93;;
80425;SDS011;69766;51.476;5.704;2023-06-19T13:13:59;9.00;;;5.63;;
80425;SDS011;69766;51.476;5.704;2023-06-19T13:16:28;10.07;;;6.03;;
80425;SDS011;69766;51.476;5.704;2023-06-19T13:18:55;8.48;;;5.43;;
80425;SDS011;69766;51.476;5.704;2023-06-19T13:21:20;7.00;;;4.97;;
80425;SDS011;69766;51.476;5.704;2023-06-19T13:23:46;7.32;;;5.22;;
80425;SDS011;69766;51.476;5.704;2023-06-19T13:26:14;8.02;;;4.82;;
80425;SDS011;69766;51.476;5.704;2023-06-19T13:28:40;8.18;;;5.68;;
80425;SDS011;69766;51.476;5.704;2023-06-19T13:31:05;8.85;;;5.28;;
80425;SDS011;69766;51.476;5.704;2023-06-19T13:33:31;9.30;;;5.57;;
80425;SDS011;69766;51.476;5.704;2023-06-19T13:35:57;7.82;;;5.38;;
80425;SDS011;69766;51.476;5.704;2023-06-19T13:38:22;7.80;;;5.45;;
80425;SDS011;69766;51.476;5.704;2023-06-19T13:40:48;7.90;;;5.63;;
80425;SDS011;69766;51.476;5.704;2023-06-19T13:43:15;8.75;;;5.75;;
80425;SDS011;69766;51.476;5.704;2023-06-19T13:45:41;9.98;;;5.88;;
80425;SDS011;69766;51.476;5.704;2023-06-19T13:48:07;9.02;;;6.05;;
80425;SDS011;69766;51.476;5.704;2023-06-19T13:50:33;8.85;;;6.20;;
80425;SDS011;69766;51.476;5.704;2023-06-19T13:52:59;9.55;;;5.90;;
80425;SDS011;69766;51.476;5.704;2023-06-19T13:55:25;7.95;;;5.47;;
80425;SDS011;69766;51.476;5.704;2023-06-19T13:57:51;10.45;;;5.90;;
80425;SDS011;69766;51.476;5.704;2023-06-19T14:00:17;8.05;;;4.85;;
80425;SDS011;69766;51.476;5.704;2023-06-19T14:02:44;8.10;;;4.88;;
80425;SDS011;69766;51.476;5.704;2023-06-19T14:05:10;8.10;;;5.57;;
80425;SDS011;69766;51.476;5.704;2023-06-19T14:07:36;7.78;;;5.90;;
80425;SDS011;69766;51.476;5.704;2023-06-19T14:10:02;8.57;;;5.00;;
80425;SDS011;69766;51.476;5.704;2023-06-19T14:12:30;7.70;;;5.60;;
80425;SDS011;69766;51.476;5.704;2023-06-19T14:14:56;9.02;;;5.38;;
80425;SDS011;69766;51.476;5.704;2023-06-19T14:17:22;7.53;;;5.15;;
80425;SDS011;69766;51.476;5.704;2023-06-19T14:19:48;7.80;;;5.47;;
80425;SDS011;69766;51.476;5.704;2023-06-19T14:22:15;8.32;;;5.63;;
80425;SDS011;69766;51.476;5.704;2023-06-19T14:24:42;8.65;;;5.63;;
80425;SDS011;69766;51.476;5.704;2023-06-19T14:27:07;9.90;;;5.63;;
80425;SDS011;69766;51.476;5.704;2023-06-19T14:29:33;9.45;;;5.60;;
80425;SDS011;69766;51.476;5.704;2023-06-19T14:31:59;8.27;;;5.18;;
80425;SDS011;69766;51.476;5.704;2023-06-19T14:34:24;8.52;;;5.88;;
80425;SDS011;69766;51.476;5.704;2023-06-19T14:36:50;9.32;;;5.80;;
80425;SDS011;69766;51.476;5.704;2023-06-19T14:39:16;6.65;;;5.35;;
80425;SDS011;69766;51.476;5.704;2023-06-19T14:41:41;10.13;;;5.85;;
80425;SDS011;69766;51.476;5.704;2023-06-19T14:44:07;9.38;;;6.00;;
80425;SDS011;69766;51.476;5.704;2023-06-19T14:46:33;9.57;;;5.78;;
80425;SDS011;69766;51.476;5.704;2023-06-19T14:49:03;9.23;;;5.13;;
80425;SDS011;69766;51.476;5.704;2023-06-19T14:51:33;9.55;;;5.13;;